sensor_id;sensor_type;location;lat;lon;timestamp;P1;durP1;ratioP1;P2;durP2;ratioP2
65755;SDS011;69208;47.502;18.940;2023-06-10T00:00:39;10.50;;;8.32;;
65755;SDS011;69208;47.502;18.940;2023-06-10T00:01:43;10.77;;;8.90;;
65755;SDS011;69208;47.502;18.940;2023-06-10T00:02:49;11.23;;;8.02;;
65755;SDS011;69208;47.502;18.940;2023-06-10T00:03:52;9.85;;;8.00;;
65755;SDS011;69208;47.502;18.940;2023-06-10T00:04:55;11.02;;;7.35;;
65755;SDS011;69208;47.502;18.940;2023-06-10T00:05:59;12.30;;;8.52;;
65755;SDS011;69208;47.502;18.940;2023-06-10T00:07:03;10.50;;;8.05;;
65755;SDS011;69208;47.502;18.940;2023-06-10T00:08:06;12.80;;;8.38;;
65755;SDS011;69208;47.502;18.940;2023-06-10T00:09:10;12.27;;;8.40;;
65755;SDS011;69208;47.502;18.940;2023-06-10T00:10:13;10.60;;;8.32;;
65755;SDS011;69208;47.502;18.940;2023-06-10T00:11:15;10.02;;;7.97;;
65755;SDS011;69208;47.502;18.940;2023-06-10T00:12:18;11.70;;;8.18;;
65755;SDS011;69208;47.502;18.940;2023-06-10T00:13:22;11.20;;;7.95;;
65755;SDS011;69208;47.502;18.940;2023-06-10T00:14:25;9.38;;;7.55;;
65755;SDS011;69208;47.502;18.940;2023-06-10T00:15:28;9.02;;;7.95;;
65755;SDS011;69208;47.502;18.940;2023-06-10T00:16:31;10.35;;;7.87;;
65755;SDS011;69208;47.502;18.940;2023-06-10T00:17:33;8.50;;;7.60;;
65755;SDS011;69208;47.502;18.940;2023-06-10T00:18:36;10.52;;;7.50;;
65755;SDS011;69208;47.502;18.940;2023-06-10T00:19:41;10.75;;;7.10;;
65755;SDS011;69208;47.502;18.940;2023-06-10T00:20:44;11.60;;;7.10;;
65755;SDS011;69208;47.502;18.940;2023-06-10T00:21:46;12.45;;;6.90;;
65755;SDS011;69208;47.502;18.940;2023-06-10T00:22:49;9.63;;;6.90;;
65755;SDS011;69208;47.502;18.940;2023-06-10T00:23:52;7.85;;;6.00;;
65755;SDS011;69208;47.502;18.940;2023-06-10T00:24:55;8.63;;;5.70;;
65755;SDS011;69208;47.502;18.940;2023-06-10T00:26:01;7.85;;;5.45;;
65755;SDS011;69208;47.502;18.940;2023-06-10T00:27:04;9.57;;;5.22;;
65755;SDS011;69208;47.502;18.940;2023-06-10T00:28:09;9.75;;;5.60;;
65755;SDS011;69208;47.502;18.940;2023-06-10T00:29:12;15.02;;;5.62;;
65755;SDS011;69208;47.502;18.940;2023-06-10T00:30:16;7.93;;;4.82;;
65755;SDS011;69208;47.502;18.940;2023-06-10T00:31:19;13.05;;;4.65;;
65755;SDS011;69208;47.502;18.940;2023-06-10T00:32:21;8.02;;;4.40;;
65755;SDS011;69208;47.502;18.940;2023-06-10T00:33:24;8.32;;;4.62;;
65755;SDS011;69208;47.502;18.940;2023-06-10T00:34:27;10.38;;;4.60;;
65755;SDS011;69208;47.502;18.940;2023-06-10T00:35:30;7.05;;;4.03;;
65755;SDS011;69208;47.502;18.940;2023-06-10T00:36:33;6.80;;;3.95;;
65755;SDS011;69208;47.502;18.940;2023-06-10T00:37:36;7.12;;;3.90;;
65755;SDS011;69208;47.502;18.940;2023-06-10T00:38:39;8.68;;;4.22;;
65755;SDS011;69208;47.502;18.940;2023-06-10T00:39:43;7.22;;;4.20;;
65755;SDS011;69208;47.502;18.940;2023-06-10T00:40:45;7.78;;;3.92;;
65755;SDS011;69208;47.502;18.940;2023-06-10T00:41:48;7.00;;;3.58;;
65755;SDS011;69208;47.502;18.940;2023-06-10T00:42:51;7.15;;;3.60;;
65755;SDS011;69208;47.502;18.940;2023-06-10T00:43:54;7.07;;;3.28;;
65755;SDS011;69208;47.502;18.940;2023-06-10T00:44:57;13.70;;;3.87;;
65755;SDS011;69208;47.502;18.940;2023-06-10T00:45:59;5.10;;;3.33;;
65755;SDS011;69208;47.502;18.940;2023-06-10T00:47:03;5.43;;;3.47;;
65755;SDS011;69208;47.502;18.940;2023-06-10T00:48:06;7.53;;;3.25;;
65755;SDS011;69208;47.502;18.940;2023-06-10T00:49:09;8.30;;;3.70;;
65755;SDS011;69208;47.502;18.940;2023-06-10T00:50:12;7.75;;;3.45;;
65755;SDS011;69208;47.502;18.940;2023-06-10T00:51:15;7.82;;;2.90;;
65755;SDS011;69208;47.502;18.940;2023-06-10T00:52:20;5.35;;;3.28;;
65755;SDS011;69208;47.502;18.940;2023-06-10T00:53:27;7.35;;;3.40;;
65755;SDS011;69208;47.502;18.940;2023-06-10T00:54:30;6.28;;;3.37;;
65755;SDS011;69208;47.502;18.940;2023-06-10T00:55:33;6.65;;;3.10;;
65755;SDS011;69208;47.502;18.940;2023-06-10T00:56:36;5.10;;;2.95;;
65755;SDS011;69208;47.502;18.940;2023-06-10T00:57:39;4.55;;;3.10;;
65755;SDS011;69208;47.502;18.940;2023-06-10T00:58:42;6.50;;;3.12;;
65755;SDS011;69208;47.502;18.940;2023-06-10T00:59:47;6.12;;;3.08;;
65755;SDS011;69208;47.502;18.940;2023-06-10T01:00:51;6.50;;;3.15;;
65755;SDS011;69208;47.502;18.940;2023-06-10T01:01:56;3.87;;;2.90;;
65755;SDS011;69208;47.502;18.940;2023-06-10T01:02:59;8.40;;;3.25;;
65755;SDS011;69208;47.502;18.940;2023-06-10T01:04:02;5.68;;;2.85;;
65755;SDS011;69208;47.502;18.940;2023-06-10T01:05:04;3.60;;;2.85;;
65755;SDS011;69208;47.502;18.940;2023-06-10T01:06:11;6.90;;;3.22;;
65755;SDS011;69208;47.502;18.940;2023-06-10T01:07:27;4.47;;;3.00;;
65755;SDS011;69208;47.502;18.940;2023-06-10T01:08:37;4.18;;;3.00;;
65755;SDS011;69208;47.502;18.940;2023-06-10T01:10:24;4.70;;;2.80;;
65755;SDS011;69208;47.502;18.940;2023-06-10T01:11:25;10.70;;;3.15;;
65755;SDS011;69208;47.502;18.940;2023-06-10T01:13:51;4.28;;;2.62;;
65755;SDS011;69208;47.502;18.940;2023-06-10T01:14:58;6.87;;;3.30;;
65755;SDS011;69208;47.502;18.940;2023-06-10T01:16:02;6.87;;;2.95;;
65755;SDS011;69208;47.502;18.940;2023-06-10T01:17:06;6.82;;;3.12;;
65755;SDS011;69208;47.502;18.940;2023-06-10T01:18:12;8.68;;;2.78;;
65755;SDS011;69208;47.502;18.940;2023-06-10T01:19:19;4.37;;;3.00;;
65755;SDS011;69208;47.502;18.940;2023-06-10T01:20:21;6.75;;;2.78;;
65755;SDS011;69208;47.502;18.940;2023-06-10T01:21:24;5.47;;;2.78;;
65755;SDS011;69208;47.502;18.940;2023-06-10T01:22:29;6.78;;;3.08;;
65755;SDS011;69208;47.502;18.940;2023-06-10T01:23:34;6.80;;;2.75;;
65755;SDS011;69208;47.502;18.940;2023-06-10T01:24:37;12.20;;;3.30;;
65755;SDS011;69208;47.502;18.940;2023-06-10T01:25:47;5.47;;;2.75;;
65755;SDS011;69208;47.502;18.940;2023-06-10T01:27:01;4.30;;;3.05;;
65755;SDS011;69208;47.502;18.940;2023-06-10T01:29:29;4.45;;;2.90;;
65755;SDS011;69208;47.502;18.940;2023-06-10T01:30:47;8.50;;;3.05;;
65755;SDS011;69208;47.502;18.940;2023-06-10T01:33:27;4.95;;;3.03;;
65755;SDS011;69208;47.502;18.940;2023-06-10T01:34:33;5.30;;;3.20;;
65755;SDS011;69208;47.502;18.940;2023-06-10T01:35:39;5.70;;;3.00;;
65755;SDS011;69208;47.502;18.940;2023-06-10T01:36:47;7.47;;;3.08;;
65755;SDS011;69208;47.502;18.940;2023-06-10T01:37:53;3.90;;;2.85;;
65755;SDS011;69208;47.502;18.940;2023-06-10T01:38:57;5.95;;;2.75;;
65755;SDS011;69208;47.502;18.940;2023-06-10T01:40:02;8.45;;;2.90;;
65755;SDS011;69208;47.502;18.940;2023-06-10T01:41:09;3.97;;;2.67;;
65755;SDS011;69208;47.502;18.940;2023-06-10T01:42:14;3.70;;;2.90;;
65755;SDS011;69208;47.502;18.940;2023-06-10T01:43:17;6.62;;;3.05;;
65755;SDS011;69208;47.502;18.940;2023-06-10T01:44:22;7.75;;;3.12;;
65755;SDS011;69208;47.502;18.940;2023-06-10T01:45:25;6.53;;;3.12;;
65755;SDS011;69208;47.502;18.940;2023-06-10T01:46:28;5.85;;;3.30;;
65755;SDS011;69208;47.502;18.940;2023-06-10T01:47:31;4.65;;;3.12;;
65755;SDS011;69208;47.502;18.940;2023-06-10T01:48:33;7.18;;;3.08;;
65755;SDS011;69208;47.502;18.940;2023-06-10T01:49:37;7.10;;;3.17;;
65755;SDS011;69208;47.502;18.940;2023-06-10T01:50:40;5.53;;;3.22;;
65755;SDS011;69208;47.502;18.940;2023-06-10T01:51:42;3.40;;;3.00;;
65755;SDS011;69208;47.502;18.940;2023-06-10T01:52:45;9.82;;;3.70;;
65755;SDS011;69208;47.502;18.940;2023-06-10T01:53:48;6.32;;;3.47;;
65755;SDS011;69208;47.502;18.940;2023-06-10T01:54:51;4.18;;;2.72;;
65755;SDS011;69208;47.502;18.940;2023-06-10T01:55:54;7.85;;;3.50;;
65755;SDS011;69208;47.502;18.940;2023-06-10T01:56:57;4.53;;;3.35;;
65755;SDS011;69208;47.502;18.940;2023-06-10T01:57:59;6.85;;;3.00;;
65755;SDS011;69208;47.502;18.940;2023-06-10T01:59:02;5.85;;;3.30;;
65755;SDS011;69208;47.502;18.940;2023-06-10T02:00:05;4.18;;;2.75;;
65755;SDS011;69208;47.502;18.940;2023-06-10T02:01:09;3.75;;;2.65;;
65755;SDS011;69208;47.502;18.940;2023-06-10T02:02:12;6.32;;;2.87;;
65755;SDS011;69208;47.502;18.940;2023-06-10T02:03:14;3.83;;;2.83;;
65755;SDS011;69208;47.502;18.940;2023-06-10T02:04:17;5.10;;;2.95;;
65755;SDS011;69208;47.502;18.940;2023-06-10T02:05:20;5.93;;;2.95;;
65755;SDS011;69208;47.502;18.940;2023-06-10T02:06:23;13.13;;;3.17;;
65755;SDS011;69208;47.502;18.940;2023-06-10T02:07:26;4.22;;;2.50;;
65755;SDS011;69208;47.502;18.940;2023-06-10T02:08:28;4.37;;;2.70;;
65755;SDS011;69208;47.502;18.940;2023-06-10T02:09:31;8.43;;;3.00;;
65755;SDS011;69208;47.502;18.940;2023-06-10T02:10:37;8.48;;;2.90;;
65755;SDS011;69208;47.502;18.940;2023-06-10T02:11:40;4.87;;;2.78;;
65755;SDS011;69208;47.502;18.940;2023-06-10T02:12:43;3.47;;;2.87;;
65755;SDS011;69208;47.502;18.940;2023-06-10T02:13:45;5.03;;;2.78;;
65755;SDS011;69208;47.502;18.940;2023-06-10T02:14:48;5.32;;;2.92;;
65755;SDS011;69208;47.502;18.940;2023-06-10T02:15:51;5.62;;;2.85;;
65755;SDS011;69208;47.502;18.940;2023-06-10T02:16:56;7.12;;;2.92;;
65755;SDS011;69208;47.502;18.940;2023-06-10T02:17:59;5.82;;;2.50;;
65755;SDS011;69208;47.502;18.940;2023-06-10T02:19:03;5.47;;;2.90;;
65755;SDS011;69208;47.502;18.940;2023-06-10T02:20:08;6.18;;;3.00;;
65755;SDS011;69208;47.502;18.940;2023-06-10T02:21:13;14.23;;;2.95;;
65755;SDS011;69208;47.502;18.940;2023-06-10T02:22:15;5.28;;;3.08;;
65755;SDS011;69208;47.502;18.940;2023-06-10T02:23:18;5.95;;;2.90;;
65755;SDS011;69208;47.502;18.940;2023-06-10T02:24:21;6.53;;;2.47;;
65755;SDS011;69208;47.502;18.940;2023-06-10T02:25:23;6.12;;;3.10;;
65755;SDS011;69208;47.502;18.940;2023-06-10T02:26:26;6.65;;;3.20;;
65755;SDS011;69208;47.502;18.940;2023-06-10T02:27:29;8.48;;;2.78;;
65755;SDS011;69208;47.502;18.940;2023-06-10T02:28:32;5.37;;;2.83;;
65755;SDS011;69208;47.502;18.940;2023-06-10T02:29:36;5.90;;;3.00;;
65755;SDS011;69208;47.502;18.940;2023-06-10T02:30:41;5.93;;;3.00;;
65755;SDS011;69208;47.502;18.940;2023-06-10T02:31:45;4.93;;;2.70;;
65755;SDS011;69208;47.502;18.940;2023-06-10T02:32:47;5.07;;;2.90;;
65755;SDS011;69208;47.502;18.940;2023-06-10T02:33:50;4.03;;;2.90;;
65755;SDS011;69208;47.502;18.940;2023-06-10T02:34:53;4.32;;;2.90;;
65755;SDS011;69208;47.502;18.940;2023-06-10T02:35:56;5.43;;;3.05;;
65755;SDS011;69208;47.502;18.940;2023-06-10T02:36:59;14.32;;;3.37;;
65755;SDS011;69208;47.502;18.940;2023-06-10T02:38:02;4.37;;;3.30;;
65755;SDS011;69208;47.502;18.940;2023-06-10T02:39:05;7.78;;;3.20;;
65755;SDS011;69208;47.502;18.940;2023-06-10T02:40:08;4.10;;;3.00;;
65755;SDS011;69208;47.502;18.940;2023-06-10T02:41:12;3.37;;;2.70;;
65755;SDS011;69208;47.502;18.940;2023-06-10T02:42:15;7.55;;;3.00;;
65755;SDS011;69208;47.502;18.940;2023-06-10T02:43:18;5.07;;;2.90;;
65755;SDS011;69208;47.502;18.940;2023-06-10T02:44:21;4.47;;;2.90;;
65755;SDS011;69208;47.502;18.940;2023-06-10T02:45:24;6.28;;;3.00;;
65755;SDS011;69208;47.502;18.940;2023-06-10T02:46:27;4.03;;;2.70;;
65755;SDS011;69208;47.502;18.940;2023-06-10T02:47:31;4.62;;;3.17;;
65755;SDS011;69208;47.502;18.940;2023-06-10T02:48:40;6.62;;;3.00;;
65755;SDS011;69208;47.502;18.940;2023-06-10T02:49:45;4.30;;;3.10;;
65755;SDS011;69208;47.502;18.940;2023-06-10T02:50:47;5.45;;;2.95;;
65755;SDS011;69208;47.502;18.940;2023-06-10T02:51:50;4.40;;;2.87;;
65755;SDS011;69208;47.502;18.940;2023-06-10T02:52:56;7.78;;;3.08;;
65755;SDS011;69208;47.502;18.940;2023-06-10T02:53:58;5.35;;;2.50;;
65755;SDS011;69208;47.502;18.940;2023-06-10T02:55:01;5.53;;;2.83;;
65755;SDS011;69208;47.502;18.940;2023-06-10T02:56:04;5.28;;;3.03;;
65755;SDS011;69208;47.502;18.940;2023-06-10T02:57:07;5.95;;;2.70;;
65755;SDS011;69208;47.502;18.940;2023-06-10T02:58:09;4.78;;;3.05;;
65755;SDS011;69208;47.502;18.940;2023-06-10T02:59:12;7.40;;;3.50;;
65755;SDS011;69208;47.502;18.940;2023-06-10T03:00:15;7.12;;;3.15;;
65755;SDS011;69208;47.502;18.940;2023-06-10T03:01:18;5.20;;;3.08;;
65755;SDS011;69208;47.502;18.940;2023-06-10T03:02:22;5.03;;;3.12;;
65755;SDS011;69208;47.502;18.940;2023-06-10T03:03:30;7.05;;;3.33;;
65755;SDS011;69208;47.502;18.940;2023-06-10T03:04:37;7.32;;;3.83;;
65755;SDS011;69208;47.502;18.940;2023-06-10T03:05:40;6.10;;;3.60;;
65755;SDS011;69208;47.502;18.940;2023-06-10T03:06:43;5.97;;;4.15;;
65755;SDS011;69208;47.502;18.940;2023-06-10T03:07:48;6.87;;;3.92;;
65755;SDS011;69208;47.502;18.940;2023-06-10T03:08:50;8.95;;;4.20;;
65755;SDS011;69208;47.502;18.940;2023-06-10T03:09:53;5.97;;;3.95;;
65755;SDS011;69208;47.502;18.940;2023-06-10T03:10:56;10.60;;;3.85;;
65755;SDS011;69208;47.502;18.940;2023-06-10T03:11:58;7.10;;;3.87;;
65755;SDS011;69208;47.502;18.940;2023-06-10T03:13:02;7.78;;;4.22;;
65755;SDS011;69208;47.502;18.940;2023-06-10T03:14:05;6.43;;;4.37;;
65755;SDS011;69208;47.502;18.940;2023-06-10T03:15:08;5.45;;;3.87;;
65755;SDS011;69208;47.502;18.940;2023-06-10T03:16:11;6.68;;;4.20;;
65755;SDS011;69208;47.502;18.940;2023-06-10T03:17:14;5.78;;;4.50;;
65755;SDS011;69208;47.502;18.940;2023-06-10T03:18:17;8.27;;;4.25;;
65755;SDS011;69208;47.502;18.940;2023-06-10T03:19:20;4.80;;;3.92;;
65755;SDS011;69208;47.502;18.940;2023-06-10T03:20:23;4.45;;;3.87;;
65755;SDS011;69208;47.502;18.940;2023-06-10T03:21:28;7.03;;;4.10;;
65755;SDS011;69208;47.502;18.940;2023-06-10T03:22:30;5.07;;;3.70;;
65755;SDS011;69208;47.502;18.940;2023-06-10T03:23:33;5.43;;;4.00;;
65755;SDS011;69208;47.502;18.940;2023-06-10T03:24:37;8.00;;;4.10;;
65755;SDS011;69208;47.502;18.940;2023-06-10T03:25:42;7.15;;;4.12;;
65755;SDS011;69208;47.502;18.940;2023-06-10T03:26:45;7.03;;;4.05;;
65755;SDS011;69208;47.502;18.940;2023-06-10T03:27:48;4.65;;;3.72;;
65755;SDS011;69208;47.502;18.940;2023-06-10T03:28:51;6.95;;;3.65;;
65755;SDS011;69208;47.502;18.940;2023-06-10T03:29:54;7.30;;;4.10;;
65755;SDS011;69208;47.502;18.940;2023-06-10T03:30:57;5.95;;;3.85;;
65755;SDS011;69208;47.502;18.940;2023-06-10T03:31:59;5.68;;;3.47;;
65755;SDS011;69208;47.502;18.940;2023-06-10T03:33:02;4.07;;;3.60;;
65755;SDS011;69208;47.502;18.940;2023-06-10T03:34:05;9.20;;;4.28;;
65755;SDS011;69208;47.502;18.940;2023-06-10T03:35:08;6.35;;;3.58;;
65755;SDS011;69208;47.502;18.940;2023-06-10T03:36:11;10.23;;;4.07;;
65755;SDS011;69208;47.502;18.940;2023-06-10T03:37:14;5.55;;;3.62;;
65755;SDS011;69208;47.502;18.940;2023-06-10T03:38:17;6.68;;;3.80;;
65755;SDS011;69208;47.502;18.940;2023-06-10T03:39:20;5.37;;;3.87;;
65755;SDS011;69208;47.502;18.940;2023-06-10T03:40:22;6.87;;;3.55;;
65755;SDS011;69208;47.502;18.940;2023-06-10T03:41:25;8.18;;;3.97;;
65755;SDS011;69208;47.502;18.940;2023-06-10T03:42:28;5.12;;;3.55;;
65755;SDS011;69208;47.502;18.940;2023-06-10T03:43:32;6.28;;;4.20;;
65755;SDS011;69208;47.502;18.940;2023-06-10T03:44:35;8.00;;;3.95;;
65755;SDS011;69208;47.502;18.940;2023-06-10T03:45:38;6.35;;;4.18;;
65755;SDS011;69208;47.502;18.940;2023-06-10T03:46:41;10.95;;;4.45;;
65755;SDS011;69208;47.502;18.940;2023-06-10T03:47:44;8.10;;;4.65;;
65755;SDS011;69208;47.502;18.940;2023-06-10T03:48:47;7.53;;;4.70;;
65755;SDS011;69208;47.502;18.940;2023-06-10T03:49:50;7.37;;;4.25;;
65755;SDS011;69208;47.502;18.940;2023-06-10T03:50:53;7.00;;;4.90;;
65755;SDS011;69208;47.502;18.940;2023-06-10T03:51:56;6.78;;;4.55;;
65755;SDS011;69208;47.502;18.940;2023-06-10T03:52:59;5.53;;;4.65;;
65755;SDS011;69208;47.502;18.940;2023-06-10T03:54:02;6.72;;;4.30;;
65755;SDS011;69208;47.502;18.940;2023-06-10T03:55:05;6.05;;;4.55;;
65755;SDS011;69208;47.502;18.940;2023-06-10T03:56:09;6.25;;;4.87;;
65755;SDS011;69208;47.502;18.940;2023-06-10T03:57:12;7.50;;;4.62;;
65755;SDS011;69208;47.502;18.940;2023-06-10T03:58:14;7.62;;;5.15;;
65755;SDS011;69208;47.502;18.940;2023-06-10T03:59:17;8.18;;;5.28;;
65755;SDS011;69208;47.502;18.940;2023-06-10T04:00:20;7.07;;;5.12;;
65755;SDS011;69208;47.502;18.940;2023-06-10T04:01:24;5.78;;;4.72;;
65755;SDS011;69208;47.502;18.940;2023-06-10T04:02:27;7.22;;;4.85;;
65755;SDS011;69208;47.502;18.940;2023-06-10T04:03:29;6.78;;;4.47;;
65755;SDS011;69208;47.502;18.940;2023-06-10T04:04:32;9.98;;;4.90;;
65755;SDS011;69208;47.502;18.940;2023-06-10T04:05:35;7.32;;;5.07;;
65755;SDS011;69208;47.502;18.940;2023-06-10T04:06:38;8.25;;;5.12;;
65755;SDS011;69208;47.502;18.940;2023-06-10T04:07:41;6.75;;;5.47;;
65755;SDS011;69208;47.502;18.940;2023-06-10T04:08:44;9.25;;;5.40;;
65755;SDS011;69208;47.502;18.940;2023-06-10T04:09:47;8.77;;;5.62;;
65755;SDS011;69208;47.502;18.940;2023-06-10T04:10:50;6.75;;;5.57;;
65755;SDS011;69208;47.502;18.940;2023-06-10T04:11:53;8.23;;;5.43;;
65755;SDS011;69208;47.502;18.940;2023-06-10T04:12:55;6.78;;;5.37;;
65755;SDS011;69208;47.502;18.940;2023-06-10T04:13:58;7.32;;;5.70;;
65755;SDS011;69208;47.502;18.940;2023-06-10T04:15:02;8.73;;;5.45;;
65755;SDS011;69208;47.502;18.940;2023-06-10T04:16:05;9.10;;;5.70;;
65755;SDS011;69208;47.502;18.940;2023-06-10T04:17:08;7.32;;;5.12;;
65755;SDS011;69208;47.502;18.940;2023-06-10T04:18:11;7.28;;;5.22;;
65755;SDS011;69208;47.502;18.940;2023-06-10T04:19:14;6.72;;;5.18;;
65755;SDS011;69208;47.502;18.940;2023-06-10T04:20:17;7.22;;;4.80;;
65755;SDS011;69208;47.502;18.940;2023-06-10T04:21:20;14.63;;;4.80;;
65755;SDS011;69208;47.502;18.940;2023-06-10T04:22:24;8.02;;;5.05;;
65755;SDS011;69208;47.502;18.940;2023-06-10T04:23:27;7.35;;;4.60;;
65755;SDS011;69208;47.502;18.940;2023-06-10T04:24:31;7.03;;;4.70;;
65755;SDS011;69208;47.502;18.940;2023-06-10T04:25:33;9.80;;;4.45;;
65755;SDS011;69208;47.502;18.940;2023-06-10T04:26:36;5.82;;;4.32;;
65755;SDS011;69208;47.502;18.940;2023-06-10T04:27:39;5.12;;;4.00;;
65755;SDS011;69208;47.502;18.940;2023-06-10T04:28:45;10.55;;;4.10;;
65755;SDS011;69208;47.502;18.940;2023-06-10T04:29:47;7.90;;;4.47;;
65755;SDS011;69208;47.502;18.940;2023-06-10T04:30:50;7.35;;;3.85;;
65755;SDS011;69208;47.502;18.940;2023-06-10T04:31:53;6.62;;;4.37;;
65755;SDS011;69208;47.502;18.940;2023-06-10T04:32:56;8.07;;;4.00;;
65755;SDS011;69208;47.502;18.940;2023-06-10T04:33:59;6.12;;;4.05;;
65755;SDS011;69208;47.502;18.940;2023-06-10T04:35:03;5.65;;;3.85;;
65755;SDS011;69208;47.502;18.940;2023-06-10T04:36:07;6.15;;;4.00;;
65755;SDS011;69208;47.502;18.940;2023-06-10T04:37:10;4.55;;;3.85;;
65755;SDS011;69208;47.502;18.940;2023-06-10T04:38:13;5.43;;;3.80;;
65755;SDS011;69208;47.502;18.940;2023-06-10T04:39:16;5.95;;;3.95;;
65755;SDS011;69208;47.502;18.940;2023-06-10T04:40:19;7.20;;;3.55;;
65755;SDS011;69208;47.502;18.940;2023-06-10T04:41:22;6.87;;;3.45;;
65755;SDS011;69208;47.502;18.940;2023-06-10T04:42:24;4.85;;;3.35;;
65755;SDS011;69208;47.502;18.940;2023-06-10T04:43:27;3.87;;;3.20;;
65755;SDS011;69208;47.502;18.940;2023-06-10T04:44:31;3.80;;;3.22;;
65755;SDS011;69208;47.502;18.940;2023-06-10T04:45:34;4.28;;;3.50;;
65755;SDS011;69208;47.502;18.940;2023-06-10T04:46:36;5.28;;;3.40;;
65755;SDS011;69208;47.502;18.940;2023-06-10T04:47:39;5.22;;;3.25;;
65755;SDS011;69208;47.502;18.940;2023-06-10T04:48:42;5.20;;;3.47;;
65755;SDS011;69208;47.502;18.940;2023-06-10T04:49:46;5.82;;;3.30;;
65755;SDS011;69208;47.502;18.940;2023-06-10T04:50:50;5.80;;;3.08;;
65755;SDS011;69208;47.502;18.940;2023-06-10T04:51:52;5.78;;;3.30;;
65755;SDS011;69208;47.502;18.940;2023-06-10T04:52:55;4.70;;;3.42;;
65755;SDS011;69208;47.502;18.940;2023-06-10T04:53:59;4.05;;;3.20;;
65755;SDS011;69208;47.502;18.940;2023-06-10T04:55:06;6.62;;;3.10;;
65755;SDS011;69208;47.502;18.940;2023-06-10T04:56:09;4.78;;;3.03;;
65755;SDS011;69208;47.502;18.940;2023-06-10T04:57:12;8.32;;;3.08;;
65755;SDS011;69208;47.502;18.940;2023-06-10T04:58:15;6.07;;;3.20;;
65755;SDS011;69208;47.502;18.940;2023-06-10T04:59:17;4.72;;;3.08;;
65755;SDS011;69208;47.502;18.940;2023-06-10T05:00:20;3.85;;;2.92;;
65755;SDS011;69208;47.502;18.940;2023-06-10T05:01:23;3.67;;;3.00;;
65755;SDS011;69208;47.502;18.940;2023-06-10T05:02:26;3.58;;;3.00;;
65755;SDS011;69208;47.502;18.940;2023-06-10T05:03:29;3.72;;;2.92;;
65755;SDS011;69208;47.502;18.940;2023-06-10T05:04:32;5.65;;;3.05;;
65755;SDS011;69208;47.502;18.940;2023-06-10T05:05:35;3.75;;;2.90;;
65755;SDS011;69208;47.502;18.940;2023-06-10T05:06:38;4.90;;;2.80;;
65755;SDS011;69208;47.502;18.940;2023-06-10T05:07:40;5.35;;;3.00;;
65755;SDS011;69208;47.502;18.940;2023-06-10T05:08:43;4.37;;;2.97;;
65755;SDS011;69208;47.502;18.940;2023-06-10T05:09:46;4.22;;;3.45;;
65755;SDS011;69208;47.502;18.940;2023-06-10T05:10:49;4.45;;;3.08;;
65755;SDS011;69208;47.502;18.940;2023-06-10T05:11:52;3.97;;;3.28;;
65755;SDS011;69208;47.502;18.940;2023-06-10T05:12:55;5.28;;;3.70;;
65755;SDS011;69208;47.502;18.940;2023-06-10T05:13:58;5.15;;;3.60;;
65755;SDS011;69208;47.502;18.940;2023-06-10T05:15:01;6.18;;;3.70;;
65755;SDS011;69208;47.502;18.940;2023-06-10T05:16:04;5.20;;;3.70;;
65755;SDS011;69208;47.502;18.940;2023-06-10T05:17:06;5.25;;;3.47;;
65755;SDS011;69208;47.502;18.940;2023-06-10T05:18:09;5.85;;;3.60;;
65755;SDS011;69208;47.502;18.940;2023-06-10T05:19:13;3.85;;;3.20;;
65755;SDS011;69208;47.502;18.940;2023-06-10T05:20:16;4.28;;;3.28;;
65755;SDS011;69208;47.502;18.940;2023-06-10T05:21:20;6.55;;;3.42;;
65755;SDS011;69208;47.502;18.940;2023-06-10T05:22:23;4.82;;;3.50;;
65755;SDS011;69208;47.502;18.940;2023-06-10T05:23:26;4.55;;;3.62;;
65755;SDS011;69208;47.502;18.940;2023-06-10T05:24:29;5.10;;;3.47;;
65755;SDS011;69208;47.502;18.940;2023-06-10T05:25:32;6.28;;;3.70;;
65755;SDS011;69208;47.502;18.940;2023-06-10T05:26:35;4.15;;;3.00;;
65755;SDS011;69208;47.502;18.940;2023-06-10T05:27:41;5.28;;;3.62;;
65755;SDS011;69208;47.502;18.940;2023-06-10T05:28:44;5.00;;;3.30;;
65755;SDS011;69208;47.502;18.940;2023-06-10T05:29:47;5.00;;;3.30;;
65755;SDS011;69208;47.502;18.940;2023-06-10T05:30:50;4.75;;;3.60;;
65755;SDS011;69208;47.502;18.940;2023-06-10T05:31:54;5.15;;;3.60;;
65755;SDS011;69208;47.502;18.940;2023-06-10T05:32:59;5.53;;;3.50;;
65755;SDS011;69208;47.502;18.940;2023-06-10T05:34:02;4.35;;;3.50;;
65755;SDS011;69208;47.502;18.940;2023-06-10T05:35:05;5.15;;;3.62;;
65755;SDS011;69208;47.502;18.940;2023-06-10T05:36:09;4.80;;;3.60;;
65755;SDS011;69208;47.502;18.940;2023-06-10T05:37:12;4.47;;;3.53;;
65755;SDS011;69208;47.502;18.940;2023-06-10T05:38:16;4.18;;;3.50;;
65755;SDS011;69208;47.502;18.940;2023-06-10T05:39:18;6.50;;;4.00;;
65755;SDS011;69208;47.502;18.940;2023-06-10T05:40:21;7.28;;;3.65;;
65755;SDS011;69208;47.502;18.940;2023-06-10T05:41:24;4.80;;;3.67;;
65755;SDS011;69208;47.502;18.940;2023-06-10T05:42:27;4.97;;;3.30;;
65755;SDS011;69208;47.502;18.940;2023-06-10T05:43:30;4.80;;;3.60;;
65755;SDS011;69208;47.502;18.940;2023-06-10T05:44:33;4.78;;;3.10;;
65755;SDS011;69208;47.502;18.940;2023-06-10T05:45:36;5.80;;;3.40;;
65755;SDS011;69208;47.502;18.940;2023-06-10T05:46:39;5.05;;;3.33;;
65755;SDS011;69208;47.502;18.940;2023-06-10T05:47:42;3.87;;;3.03;;
65755;SDS011;69208;47.502;18.940;2023-06-10T05:48:45;4.30;;;3.37;;
65755;SDS011;69208;47.502;18.940;2023-06-10T05:49:48;4.07;;;3.17;;
65755;SDS011;69208;47.502;18.940;2023-06-10T05:50:52;4.90;;;3.40;;
65755;SDS011;69208;47.502;18.940;2023-06-10T05:51:55;4.32;;;3.20;;
65755;SDS011;69208;47.502;18.940;2023-06-10T05:52:59;5.97;;;3.50;;
65755;SDS011;69208;47.502;18.940;2023-06-10T05:54:02;3.53;;;3.22;;
65755;SDS011;69208;47.502;18.940;2023-06-10T05:55:05;3.72;;;3.20;;
65755;SDS011;69208;47.502;18.940;2023-06-10T05:56:09;4.12;;;3.40;;
65755;SDS011;69208;47.502;18.940;2023-06-10T05:57:12;4.53;;;3.50;;
65755;SDS011;69208;47.502;18.940;2023-06-10T05:58:15;5.65;;;3.37;;
65755;SDS011;69208;47.502;18.940;2023-06-10T05:59:17;5.50;;;3.58;;
65755;SDS011;69208;47.502;18.940;2023-06-10T06:00:20;4.85;;;3.55;;
65755;SDS011;69208;47.502;18.940;2023-06-10T06:01:23;6.15;;;3.30;;
65755;SDS011;69208;47.502;18.940;2023-06-10T06:02:26;5.22;;;3.60;;
65755;SDS011;69208;47.502;18.940;2023-06-10T06:03:29;5.12;;;3.70;;
65755;SDS011;69208;47.502;18.940;2023-06-10T06:04:32;4.85;;;3.45;;
65755;SDS011;69208;47.502;18.940;2023-06-10T06:05:35;5.05;;;3.70;;
65755;SDS011;69208;47.502;18.940;2023-06-10T06:06:39;5.10;;;3.60;;
65755;SDS011;69208;47.502;18.940;2023-06-10T06:07:42;6.43;;;3.92;;
65755;SDS011;69208;47.502;18.940;2023-06-10T06:08:45;9.05;;;3.80;;
65755;SDS011;69208;47.502;18.940;2023-06-10T06:09:48;21.23;;;3.70;;
65755;SDS011;69208;47.502;18.940;2023-06-10T06:10:51;6.45;;;3.83;;
65755;SDS011;69208;47.502;18.940;2023-06-10T06:11:53;5.87;;;3.47;;
65755;SDS011;69208;47.502;18.940;2023-06-10T06:12:56;5.22;;;3.75;;
65755;SDS011;69208;47.502;18.940;2023-06-10T06:13:59;6.78;;;3.70;;
65755;SDS011;69208;47.502;18.940;2023-06-10T06:15:02;7.68;;;3.90;;
65755;SDS011;69208;47.502;18.940;2023-06-10T06:16:05;6.20;;;4.03;;
65755;SDS011;69208;47.502;18.940;2023-06-10T06:17:09;4.05;;;3.53;;
65755;SDS011;69208;47.502;18.940;2023-06-10T06:18:11;4.72;;;3.42;;
65755;SDS011;69208;47.502;18.940;2023-06-10T06:19:14;6.22;;;3.78;;
65755;SDS011;69208;47.502;18.940;2023-06-10T06:20:18;4.95;;;3.65;;
65755;SDS011;69208;47.502;18.940;2023-06-10T06:21:24;5.60;;;3.28;;